A80 TRACON Summary / KATL TAF
ATL TRACON Summary:
Expect low-VFR conditions this evening and overnight with FEW/SCT035 clouds and good visibility. Surface winds will be from the east to northeast at 8-15kts. Expect 30-40kt compression winds as aircraft transition from downwind to final approach in East operations. No significant flight hazards are expected in the TRACON airspace.

Updated:9/23/2014 7:56 PM
ATL Terminal Aerodrome Forecast:

FTUS80 KATL 240151 AAA
KATL 240149Z 2402/2506 07012KT P6SM FEW035
     FM241400 07012G20KT P6SM SCT025 SCT045
     FM241700 06012G18KT P6SM BKN040
     FM242200 06010KT P6SM SCT045
ATL TRACON Area Remark:
NONE.
Convective Gate Forecast / Collaborative Convective Forecast Product / Vertical Wind Profile
Convective Gate Forecast
AIRMETs & SIGMETS/ Southeast Radar loop / Satellite Image (click on image to enlarge)

Southeast Radar Loop

 



USA.gov is the U.S. government's official web portal to all federal, state and local government web resources and services.